Time;durP1;ratioP1;P1;durP2;ratioP2;P2;SDS_P1;SDS_P2;PMS_P1;PMS_P2;Temp;Humidity;BMP_temperature;BMP_pressure;BME280_temperature;BME280_humidity;BME280_pressure;Samples;Min_cycle;Max_cycle;Signal;HPM_P1;HPM_P2
2021/07/31 00:01:01;;;;;;;7.50;6.90;;;23.40;87.60;;;;;;5103986;27;20849;-65
2021/07/31 00:03:29;;;;;;;57.53;51.43;;;23.40;87.80;;;;;;5112629;28;20490;-65
2021/07/31 00:05:57;;;;;;;48.33;43.33;;;23.40;88.90;;;;;;5108770;27;20526;-65
2021/07/31 00:08:31;;;;;;;68.37;61.03;;;23.50;89.00;;;;;;5107319;28;20554;-64
2021/07/31 00:10:59;;;;;;;53.90;48.30;;;23.50;89.50;;;;;;5103945;28;20539;-64
2021/07/31 00:13:27;;;;;;;44.97;40.30;;;23.50;89.60;;;;;;5111924;28;20514;-64
2021/07/31 00:15:54;;;;;;;34.57;30.30;;;23.60;89.60;;;;;;5099900;27;20525;-64
2021/07/31 00:18:21;;;;;;;22.10;19.23;;;23.70;89.30;;;;;;5112648;28;20487;-66
2021/07/31 00:20:49;;;;;;;14.40;13.00;;;23.70;88.80;;;;;;5105797;27;20465;-64
2021/07/31 00:23:16;;;;;;;11.10;10.00;;;23.70;88.30;;;;;;5098658;28;20996;-64
2021/07/31 00:25:43;;;;;;;23.63;19.27;;;23.70;88.00;;;;;;5108785;28;20471;-63
2021/07/31 00:28:10;;;;;;;19.93;17.83;;;23.70;87.90;;;;;;5112801;28;20460;-64
2021/07/31 00:30:37;;;;;;;62.63;54.80;;;23.70;87.80;;;;;;5105664;27;20958;-64
2021/07/31 00:33:04;;;;;;;44.57;36.30;;;23.70;87.60;;;;;;5098828;28;20469;-64
2021/07/31 00:35:31;;;;;;;25.00;22.37;;;23.70;87.50;;;;;;5105075;28;20473;-65
2021/07/31 00:37:59;;;;;;;16.37;14.87;;;23.70;87.00;;;;;;5112128;28;20460;-64
2021/07/31 00:40:26;;;;;;;12.57;11.33;;;23.70;86.90;;;;;;5111380;28;20503;-65
2021/07/31 00:42:53;;;;;;;8.63;7.77;;;23.60;86.70;;;;;;5102985;28;20465;-65
2021/07/31 00:45:20;;;;;;;8.80;8.00;;;23.60;86.80;;;;;;5102613;28;20955;-64
2021/07/31 00:47:47;;;;;;;6.80;6.20;;;23.50;86.80;;;;;;5107620;28;20826;-64
2021/07/31 00:50:14;;;;;;;5.37;4.97;;;23.40;86.70;;;;;;5109882;28;20460;-64
2021/07/31 00:52:43;;;;;;;5.33;4.93;;;23.40;86.80;;;;;;5100807;28;20482;-65
2021/07/31 00:55:13;;;;;;;5.37;4.90;;;23.40;86.90;;;;;;5114607;27;20844;-64
2021/07/31 00:57:42;;;;;;;6.67;4.70;;;23.30;86.90;;;;;;5104433;27;20545;-65
2021/07/31 01:00:10;;;;;;;4.47;4.17;;;23.30;86.90;;;;;;5110417;28;20476;-64
2021/07/31 01:02:37;;;;;;;5.90;5.30;;;23.30;87.00;;;;;;5116132;27;20977;-66
2021/07/31 01:05:05;;;;;;;6.07;4.97;;;23.20;87.10;;;;;;5111917;27;21228;-65
2021/07/31 01:07:32;;;;;;;5.93;5.43;;;23.20;87.10;;;;;;5116264;27;20469;-65
2021/07/31 01:09:59;;;;;;;5.83;5.17;;;23.20;87.10;;;;;;5104728;27;20512;-65
2021/07/31 01:12:28;;;;;;;7.63;6.90;;;23.10;87.20;;;;;;5114274;27;20465;-65
2021/07/31 01:14:55;;;;;;;5.70;5.17;;;23.10;87.10;;;;;;5115473;28;20464;-65
2021/07/31 01:17:22;;;;;;;5.10;4.60;;;23.00;86.80;;;;;;5109445;28;20514;-65
2021/07/31 01:19:48;;;;;;;4.90;4.43;;;23.00;86.80;;;;;;5111823;27;20946;-65
2021/07/31 01:22:17;;;;;;;5.33;4.93;;;23.00;86.70;;;;;;5104203;28;20541;-64
2021/07/31 01:24:44;;;;;;;6.20;5.13;;;23.00;86.70;;;;;;5105115;28;20469;-64
2021/07/31 01:27:11;;;;;;;4.83;4.43;;;22.90;86.80;;;;;;5114430;28;20452;-64
2021/07/31 01:29:38;;;;;;;4.87;4.37;;;22.90;86.80;;;;;;5115868;27;20534;-64
2021/07/31 01:32:06;;;;;;;5.07;4.57;;;22.90;86.80;;;;;;5109580;28;20959;-64
2021/07/31 01:34:32;;;;;;;5.03;4.43;;;22.90;86.80;;;;;;5108130;28;20541;-65
2021/07/31 01:36:59;;;;;;;5.10;4.70;;;22.90;86.70;;;;;;5102572;28;20476;-65
2021/07/31 01:39:27;;;;;;;6.37;5.77;;;22.90;86.70;;;;;;5110971;27;20472;-64
2021/07/31 01:41:54;;;;;;;5.33;4.93;;;22.90;86.80;;;;;;5106189;28;20535;-64
2021/07/31 01:44:21;;;;;;;7.60;5.50;;;22.90;86.90;;;;;;5108594;28;20962;-64
2021/07/31 01:46:48;;;;;;;4.73;4.33;;;22.90;87.00;;;;;;5101703;28;20853;-64
2021/07/31 01:49:15;;;;;;;4.20;3.90;;;22.80;87.10;;;;;;5108224;28;20471;-63
2021/07/31 01:51:42;;;;;;;5.43;4.93;;;22.90;87.10;;;;;;5107869;28;20484;-64
2021/07/31 01:54:09;;;;;;;6.10;4.70;;;22.80;87.10;;;;;;5109437;27;21276;-64
2021/07/31 01:56:37;;;;;;;5.40;4.90;;;22.80;87.20;;;;;;5099047;28;20514;-64
2021/07/31 01:59:04;;;;;;;5.20;4.70;;;22.80;87.20;;;;;;5102176;28;20474;-63
2021/07/31 02:01:31;;;;;;;39.50;34.97;;;22.80;87.40;;;;;;5114548;27;20524;-64
2021/07/31 02:03:58;;;;;;;10.83;9.60;;;22.80;87.90;;;;;;5109971;28;20461;-64
2021/07/31 02:06:25;;;;;;;9.57;6.40;;;22.80;87.60;;;;;;5114805;28;20472;-63
2021/07/31 02:08:52;;;;;;;6.03;5.50;;;22.80;87.40;;;;;;5105380;27;20784;-63
2021/07/31 02:11:19;;;;;;;7.50;6.80;;;22.80;87.40;;;;;;5110766;28;20521;-63
2021/07/31 02:13:47;;;;;;;8.77;6.40;;;22.80;87.70;;;;;;5113341;27;20465;-63
2021/07/31 02:16:22;;;;;;;6.43;5.20;;;22.70;87.60;;;;;;5100458;28;20464;-63
2021/07/31 02:18:49;;;;;;;8.50;5.20;;;22.70;87.70;;;;;;5107589;27;20560;-63
2021/07/31 02:21:16;;;;;;;11.30;5.30;;;22.70;87.80;;;;;;5105427;27;20856;-63
2021/07/31 02:23:43;;;;;;;8.40;6.30;;;22.70;87.90;;;;;;5102910;28;20521;-65
2021/07/31 02:26:10;;;;;;;7.13;5.63;;;22.70;87.80;;;;;;5110556;28;20540;-65
2021/07/31 02:28:37;;;;;;;5.93;5.43;;;22.70;87.80;;;;;;5110508;28;20477;-64
2021/07/31 02:31:06;;;;;;;20.20;17.67;;;22.70;87.80;;;;;;5112140;28;20478;-64
2021/07/31 02:33:33;;;;;;;19.30;17.17;;;22.70;88.00;;;;;;5112539;28;21033;-64
2021/07/31 02:36:03;;;;;;;18.53;15.07;;;22.80;88.20;;;;;;5108433;27;20803;-65
2021/07/31 02:38:30;;;;;;;26.63;23.80;;;22.80;88.10;;;;;;5105070;28;20548;-65
2021/07/31 02:40:57;;;;;;;19.07;12.50;;;22.90;88.60;;;;;;5113140;28;20530;-64
2021/07/31 02:43:23;;;;;;;18.53;16.67;;;22.90;88.30;;;;;;5111377;28;20464;-64
2021/07/31 02:45:50;;;;;;;17.20;11.90;;;22.90;88.40;;;;;;5102617;28;20536;-64
2021/07/31 02:48:19;;;;;;;12.13;9.67;;;22.90;88.30;;;;;;5109326;28;20539;-64
2021/07/31 02:50:46;;;;;;;13.63;10.60;;;22.90;88.10;;;;;;5114330;27;20491;-64
2021/07/31 02:53:13;;;;;;;11.80;9.83;;;22.90;88.10;;;;;;5100778;28;20954;-64
2021/07/31 02:55:39;;;;;;;16.33;13.37;;;22.90;88.00;;;;;;5101482;28;20542;-64
2021/07/31 02:58:06;;;;;;;15.87;14.23;;;22.90;87.80;;;;;;5103745;28;20477;-64
2021/07/31 03:00:33;;;;;;;11.40;10.03;;;22.90;88.20;;;;;;5109855;28;20533;-64
2021/07/31 03:03:00;;;;;;;11.03;9.83;;;22.90;87.20;;;;;;5108507;28;20469;-64
2021/07/31 03:05:28;;;;;;;12.73;11.53;;;22.90;87.10;;;;;;5112984;27;21039;-64
2021/07/31 03:07:55;;;;;;;10.77;8.00;;;22.90;87.10;;;;;;5105091;28;20464;-64
2021/07/31 03:10:22;;;;;;;6.73;6.20;;;22.90;86.80;;;;;;5105613;28;20521;-64
2021/07/31 03:12:50;;;;;;;7.97;7.17;;;22.90;86.70;;;;;;5113155;27;20946;-64
2021/07/31 03:15:18;;;;;;;7.07;6.47;;;22.90;86.70;;;;;;5112555;28;20452;-64
2021/07/31 03:17:45;;;;;;;11.07;9.87;;;22.90;86.80;;;;;;5107979;28;20476;-64
2021/07/31 03:20:13;;;;;;;11.90;10.70;;;22.90;87.00;;;;;;5110964;27;20464;-65
2021/07/31 03:22:41;;;;;;;13.83;12.37;;;22.90;86.90;;;;;;5101429;28;20498;-64
2021/07/31 03:25:09;;;;;;;30.03;26.97;;;22.90;87.00;;;;;;5107059;28;20473;-65
2021/07/31 03:27:36;;;;;;;10.93;9.93;;;22.80;87.00;;;;;;5113657;27;20460;-65
2021/07/31 03:30:04;;;;;;;7.57;6.77;;;22.80;86.90;;;;;;5105119;28;20473;-65
2021/07/31 03:32:30;;;;;;;15.00;13.50;;;22.80;86.90;;;;;;5110872;28;20533;-64
2021/07/31 03:34:57;;;;;;;10.10;8.20;;;22.80;86.80;;;;;;5111377;27;20469;-65
2021/07/31 03:37:24;;;;;;;9.40;8.57;;;22.80;86.70;;;;;;5104914;28;20873;-65
2021/07/31 03:39:52;;;;;;;10.63;9.53;;;22.80;86.60;;;;;;5109180;28;20480;-65
2021/07/31 03:42:19;;;;;;;10.63;7.90;;;22.70;86.50;;;;;;5113138;28;21281;-65
2021/07/31 03:44:46;;;;;;;5.90;5.40;;;22.70;86.40;;;;;;5101879;28;21031;-65
2021/07/31 03:47:13;;;;;;;5.70;5.20;;;22.70;86.50;;;;;;5110386;27;20472;-66
2021/07/31 03:49:40;;;;;;;5.00;4.57;;;22.70;86.40;;;;;;5109985;28;20477;-65
2021/07/31 03:52:07;;;;;;;4.80;4.40;;;22.70;86.50;;;;;;5104659;28;20541;-65
2021/07/31 03:54:37;;;;;;;5.27;4.10;;;22.70;86.70;;;;;;5106296;27;20465;-65
2021/07/31 03:57:05;;;;;;;5.23;4.60;;;22.60;86.50;;;;;;5096836;28;20531;-65
2021/07/31 03:59:32;;;;;;;4.60;4.20;;;22.60;86.50;;;;;;5106233;28;20588;-65
2021/07/31 04:02:02;;;;;;;5.37;3.60;;;22.60;86.40;;;;;;5112662;28;20529;-65
2021/07/31 04:04:29;;;;;;;5.13;4.47;;;22.60;86.50;;;;;;5107859;28;20465;-65
2021/07/31 04:06:58;;;;;;;4.30;3.93;;;22.60;86.40;;;;;;5113073;28;20472;-65
2021/07/31 04:09:25;;;;;;;5.27;3.83;;;22.60;86.30;;;;;;5106601;28;20466;-65
2021/07/31 04:11:52;;;;;;;3.30;3.10;;;22.50;86.30;;;;;;5108983;28;20535;-65
2021/07/31 04:14:20;;;;;;;3.93;3.40;;;22.50;86.50;;;;;;5112360;28;20860;-65
2021/07/31 04:16:47;;;;;;;3.20;2.93;;;22.50;86.70;;;;;;5106200;28;20457;-65
2021/07/31 04:19:14;;;;;;;6.23;3.23;;;22.50;86.80;;;;;;5110135;27;20505;-66
2021/07/31 04:21:41;;;;;;;4.23;3.70;;;22.40;86.90;;;;;;5101328;27;20469;-65
2021/07/31 04:24:08;;;;;;;3.23;2.70;;;22.40;86.90;;;;;;5105784;28;20464;-66
2021/07/31 04:26:35;;;;;;;3.30;3.00;;;22.40;87.10;;;;;;5106322;27;20460;-65
2021/07/31 04:29:02;;;;;;;4.03;3.73;;;22.40;87.20;;;;;;5104716;27;20833;-65
2021/07/31 04:31:30;;;;;;;4.40;3.17;;;22.40;87.30;;;;;;5104356;27;20465;-65
2021/07/31 04:33:57;;;;;;;4.13;3.27;;;22.30;87.20;;;;;;5104578;27;20533;-65
2021/07/31 04:36:24;;;;;;;2.73;2.50;;;22.40;87.40;;;;;;5105833;27;20469;-65
2021/07/31 04:38:50;;;;;;;3.10;2.90;;;22.30;87.10;;;;;;5106327;27;20521;-65
2021/07/31 04:41:17;;;;;;;2.77;2.57;;;22.30;87.00;;;;;;5104573;27;20464;-65
2021/07/31 04:43:44;;;;;;;5.70;5.20;;;22.30;87.00;;;;;;5105677;27;20970;-65
2021/07/31 04:46:11;;;;;;;6.20;4.83;;;22.30;86.90;;;;;;5103998;27;20553;-65
2021/07/31 04:48:39;;;;;;;4.03;3.70;;;22.30;86.90;;;;;;5104288;27;20495;-65
2021/07/31 04:51:09;;;;;;;2.70;2.50;;;22.30;86.70;;;;;;5104033;27;20502;-65
2021/07/31 04:53:36;;;;;;;3.40;2.30;;;22.30;87.00;;;;;;5105111;27;20487;-65
2021/07/31 04:56:03;;;;;;;2.50;2.27;;;22.30;86.90;;;;;;5105224;27;20480;-65
2021/07/31 04:58:31;;;;;;;3.93;2.57;;;22.30;87.00;;;;;;5104929;27;21422;-65
2021/07/31 05:00:59;;;;;;;2.53;2.20;;;22.30;87.10;;;;;;5105674;27;20529;-65
2021/07/31 05:03:27;;;;;;;2.50;2.30;;;22.30;86.90;;;;;;5104595;28;20467;-65
2021/07/31 05:05:55;;;;;;;4.70;2.17;;;22.30;86.90;;;;;;5106234;27;20472;-65
2021/07/31 05:08:22;;;;;;;3.33;2.40;;;22.30;87.00;;;;;;5105088;27;20497;-65
2021/07/31 05:10:50;;;;;;;2.70;2.43;;;22.30;86.90;;;;;;5107766;27;20468;-65
2021/07/31 05:13:18;;;;;;;7.20;6.50;;;22.30;86.90;;;;;;5111182;28;20520;-65
2021/07/31 05:15:46;;;;;;;3.33;3.03;;;22.30;87.20;;;;;;5112168;27;20457;-65
2021/07/31 05:18:13;;;;;;;13.43;9.93;;;22.30;86.80;;;;;;5110325;27;21134;-65
2021/07/31 05:20:42;;;;;;;3.80;3.50;;;22.40;87.10;;;;;;5110689;27;20486;-65
2021/07/31 05:23:10;;;;;;;3.37;3.07;;;22.40;86.70;;;;;;5110444;27;20464;-65
2021/07/31 05:25:37;;;;;;;2.40;2.20;;;22.40;86.60;;;;;;5110542;27;20472;-65
2021/07/31 05:28:05;;;;;;;2.63;2.33;;;22.50;87.40;;;;;;5110437;27;20465;-65
2021/07/31 05:30:32;;;;;;;2.60;2.40;;;22.50;86.10;;;;;;5110295;27;20517;-65
2021/07/31 05:32:58;;;;;;;3.50;3.03;;;22.60;85.40;;;;;;5111457;27;20468;-65
2021/07/31 05:35:26;;;;;;;4.00;3.03;;;22.60;85.10;;;;;;5113717;27;20467;-65
2021/07/31 05:37:53;;;;;;;2.43;2.23;;;22.60;85.00;;;;;;5115263;27;20472;-65
2021/07/31 05:40:21;;;;;;;2.73;2.50;;;22.60;84.90;;;;;;5115488;27;20978;-65
2021/07/31 05:42:48;;;;;;;3.40;3.10;;;22.70;84.40;;;;;;5115917;27;20480;-65
2021/07/31 05:45:14;;;;;;;3.13;2.53;;;22.70;84.30;;;;;;5115310;27;20460;-65
2021/07/31 05:47:41;;;;;;;3.40;3.10;;;22.70;84.30;;;;;;5115471;27;20491;-65
2021/07/31 05:50:13;;;;;;;2.83;2.43;;;22.70;84.20;;;;;;5115828;27;20513;-66
2021/07/31 05:52:40;;;;;;;2.27;2.07;;;22.80;83.90;;;;;;5115689;27;20448;-66
2021/07/31 05:55:08;;;;;;;2.63;2.43;;;22.80;84.10;;;;;;5115761;27;20479;-66
2021/07/31 05:57:36;;;;;;;2.50;2.30;;;22.80;84.10;;;;;;5115185;27;20456;-66
2021/07/31 06:00:04;;;;;;;3.20;2.27;;;22.80;83.80;;;;;;5115328;27;20464;-66
2021/07/31 06:02:31;;;;;;;2.30;2.10;;;22.80;84.10;;;;;;5115031;27;20468;-66
2021/07/31 06:04:58;;;;;;;2.90;2.23;;;22.80;83.90;;;;;;5115517;27;20464;-65
2021/07/31 06:07:25;;;;;;;2.83;2.53;;;22.80;83.60;;;;;;5114956;27;20556;-66
2021/07/31 06:09:53;;;;;;;2.50;1.70;;;22.80;83.40;;;;;;5115251;27;20468;-66
2021/07/31 06:12:20;;;;;;;2.30;2.10;;;22.90;82.50;;;;;;5115025;27;20492;-66
2021/07/31 06:14:49;;;;;;;3.70;1.87;;;22.90;82.30;;;;;;5115032;27;20958;-66
2021/07/31 06:17:17;;;;;;;1.80;1.60;;;22.90;82.30;;;;;;5115198;27;20472;-66
2021/07/31 06:19:44;;;;;;;2.73;2.00;;;23.00;82.40;;;;;;5114997;27;20592;-66
2021/07/31 06:22:11;;;;;;;3.03;1.80;;;23.00;82.20;;;;;;5115062;27;20466;-65
2021/07/31 06:24:38;;;;;;;2.20;2.00;;;23.10;81.70;;;;;;5114715;27;20923;-66
2021/07/31 06:27:06;;;;;;;2.80;2.30;;;23.10;81.30;;;;;;5115305;27;20855;-66
2021/07/31 06:29:32;;;;;;;4.03;2.40;;;23.20;81.30;;;;;;5114398;27;20530;-65
2021/07/31 06:32:01;;;;;;;9.03;2.07;;;23.20;80.90;;;;;;5115055;27;20468;-66
2021/07/31 06:34:28;;;;;;;2.23;2.07;;;23.30;80.60;;;;;;5114579;27;20529;-66
2021/07/31 06:36:55;;;;;;;3.03;2.53;;;23.40;79.30;;;;;;5114836;27;20480;-66
2021/07/31 06:39:22;;;;;;;2.20;2.00;;;23.40;78.90;;;;;;5114308;27;20997;-66
2021/07/31 06:41:49;;;;;;;3.77;1.83;;;23.50;79.00;;;;;;5115103;27;20526;-66
2021/07/31 06:44:16;;;;;;;3.10;2.43;;;23.50;79.00;;;;;;5114141;27;20825;-66
2021/07/31 06:46:43;;;;;;;5.43;1.90;;;23.60;78.50;;;;;;5114280;27;20502;-66
2021/07/31 06:49:11;;;;;;;2.10;1.90;;;23.70;77.50;;;;;;5114755;27;20864;-64
2021/07/31 06:51:39;;;;;;;2.40;2.20;;;23.70;77.60;;;;;;5114160;27;20465;-66
2021/07/31 06:54:06;;;;;;;5.00;1.70;;;23.80;77.50;;;;;;5114614;27;20547;-66
2021/07/31 06:56:35;;;;;;;2.33;2.13;;;23.90;76.90;;;;;;5114040;27;20536;-66
2021/07/31 06:59:02;;;;;;;2.57;1.50;;;24.00;76.90;;;;;;5114186;27;20535;-66
2021/07/31 07:01:29;;;;;;;2.70;1.50;;;24.10;76.10;;;;;;5114071;27;20856;-66
2021/07/31 07:03:56;;;;;;;1.87;1.30;;;24.20;75.70;;;;;;5114317;27;20969;-66
2021/07/31 07:06:25;;;;;;;2.30;1.67;;;24.20;75.30;;;;;;5113853;27;20864;-63
2021/07/31 07:08:51;;;;;;;4.70;1.93;;;24.30;74.90;;;;;;5114186;27;20472;-65
2021/07/31 07:11:19;;;;;;;4.17;1.87;;;24.40;74.70;;;;;;5114049;27;20802;-65
2021/07/31 07:13:46;;;;;;;4.33;1.37;;;24.50;74.10;;;;;;5113608;27;20463;-65
2021/07/31 07:16:13;;;;;;;2.40;1.30;;;24.60;73.20;;;;;;5114252;27;20795;-63
2021/07/31 07:18:40;;;;;;;2.33;1.40;;;24.60;73.10;;;;;;5113364;27;20864;-64
2021/07/31 07:21:08;;;;;;;3.47;1.93;;;24.70;73.10;;;;;;5114040;27;20461;-65
2021/07/31 07:23:37;;;;;;;1.50;1.40;;;24.80;73.40;;;;;;5113525;27;20464;-64
2021/07/31 07:26:09;;;;;;;2.60;2.40;;;24.80;73.10;;;;;;5113997;27;20464;-64
2021/07/31 07:28:36;;;;;;;1.63;1.50;;;25.00;73.20;;;;;;5113176;27;21104;-65
2021/07/31 07:31:03;;;;;;;3.90;1.50;;;25.00;72.40;;;;;;5113838;27;20518;-64
2021/07/31 07:33:30;;;;;;;1.93;1.53;;;25.00;72.50;;;;;;5113310;27;20461;-64
2021/07/31 07:35:56;;;;;;;2.80;1.57;;;25.10;72.00;;;;;;5113816;27;21115;-65
2021/07/31 07:38:26;;;;;;;2.00;1.83;;;25.10;71.40;;;;;;5113564;27;20537;-65
2021/07/31 07:40:55;;;;;;;3.37;1.30;;;25.10;70.70;;;;;;5113242;27;20460;-64
2021/07/31 07:43:21;;;;;;;3.60;1.70;;;25.20;70.80;;;;;;5113449;27;20518;-64
2021/07/31 07:45:48;;;;;;;2.10;1.60;;;25.30;70.90;;;;;;5112977;27;20468;-65
2021/07/31 07:48:15;;;;;;;1.30;1.20;;;25.30;70.60;;;;;;5113433;27;20483;-65
2021/07/31 07:50:42;;;;;;;4.13;1.83;;;25.40;70.40;;;;;;5113020;27;20517;-65
2021/07/31 07:53:11;;;;;;;2.40;1.73;;;25.40;70.00;;;;;;5113419;27;20536;-65
2021/07/31 07:55:38;;;;;;;5.87;1.50;;;25.40;69.30;;;;;;5112110;27;20836;-65
2021/07/31 07:58:10;;;;;;;3.20;1.50;;;25.40;69.00;;;;;;5113297;27;20497;-65
2021/07/31 08:00:37;;;;;;;3.07;1.73;;;25.50;68.00;;;;;;5112872;27;20456;-65
2021/07/31 08:03:06;;;;;;;4.00;1.60;;;25.50;67.80;;;;;;5113369;27;20453;-65
2021/07/31 08:05:33;;;;;;;1.70;1.53;;;25.60;68.10;;;;;;5112894;27;21004;-65
2021/07/31 08:07:59;;;;;;;2.43;2.20;;;25.60;67.50;;;;;;5113293;27;20468;-65
2021/07/31 08:10:26;;;;;;;2.50;2.30;;;25.70;67.80;;;;;;5113088;27;20962;-66
2021/07/31 08:12:53;;;;;;;3.10;2.80;;;25.80;67.60;;;;;;5112888;27;20521;-66
2021/07/31 08:15:21;;;;;;;4.07;2.97;;;25.80;68.30;;;;;;5113166;27;20469;-65
2021/07/31 08:17:48;;;;;;;2.90;2.00;;;25.70;66.80;;;;;;5112404;27;20468;-65
2021/07/31 08:20:15;;;;;;;1.73;1.30;;;25.60;65.30;;;;;;5112998;27;20461;-66
2021/07/31 08:22:42;;;;;;;2.53;2.00;;;25.60;65.60;;;;;;5112733;27;20460;-65
2021/07/31 08:25:10;;;;;;;2.73;2.53;;;25.70;66.20;;;;;;5112941;27;21007;-66
2021/07/31 08:27:38;;;;;;;1.67;1.57;;;25.80;66.30;;;;;;5112534;27;20517;-65
2021/07/31 08:30:06;;;;;;;2.10;1.50;;;26.00;65.60;;;;;;5113136;27;21056;-65
2021/07/31 08:32:35;;;;;;;3.00;1.40;;;25.90;64.00;;;;;;5112397;27;20533;-65
2021/07/31 08:35:02;;;;;;;2.60;2.40;;;26.00;63.90;;;;;;5112920;27;20533;-64
2021/07/31 08:37:28;;;;;;;1.90;1.70;;;26.00;64.10;;;;;;5112709;27;20596;-65
2021/07/31 08:39:55;;;;;;;2.90;1.30;;;26.10;63.90;;;;;;5112413;27;20448;-65
2021/07/31 08:42:22;;;;;;;3.70;1.60;;;26.10;63.40;;;;;;5112994;27;20491;-65
2021/07/31 08:44:49;;;;;;;2.70;1.20;;;26.10;63.40;;;;;;5112360;27;20464;-65
2021/07/31 08:47:16;;;;;;;3.67;2.03;;;26.20;63.40;;;;;;5112456;27;20567;-66
2021/07/31 08:49:46;;;;;;;5.00;2.07;;;26.20;63.00;;;;;;5112343;27;20958;-65
2021/07/31 08:52:15;;;;;;;1.83;1.70;;;26.20;62.40;;;;;;5112638;27;20551;-66
2021/07/31 08:54:42;;;;;;;3.60;1.83;;;26.10;62.50;;;;;;5112257;27;20542;-66
2021/07/31 08:57:11;;;;;;;3.00;1.53;;;26.10;62.80;;;;;;5112651;27;20514;-65
2021/07/31 08:59:38;;;;;;;2.97;1.63;;;26.10;62.60;;;;;;5112153;27;20522;-65
2021/07/31 09:02:05;;;;;;;3.83;1.67;;;26.10;62.20;;;;;;5112614;27;20452;-65
2021/07/31 09:04:32;;;;;;;1.50;1.30;;;26.10;63.00;;;;;;5112785;27;21003;-65
2021/07/31 09:07:12;;;;;;;2.73;1.60;;;26.10;62.30;;;;;;5113355;27;20452;-64
2021/07/31 09:09:39;;;;;;;1.73;1.53;;;26.10;62.20;;;;;;5116115;27;20464;-65
2021/07/31 09:12:07;;;;;;;1.63;1.30;;;26.10;62.10;;;;;;5116705;27;20942;-65
2021/07/31 09:14:36;;;;;;;2.30;2.07;;;26.00;62.70;;;;;;5116391;27;20472;-64
2021/07/31 09:17:03;;;;;;;1.60;1.50;;;26.00;62.90;;;;;;5115962;27;21254;-64
2021/07/31 09:19:31;;;;;;;2.53;1.43;;;26.00;63.20;;;;;;5116299;27;20472;-65
2021/07/31 09:22:07;;;;;;;2.40;1.87;;;26.10;64.30;;;;;;5116001;27;20533;-65
2021/07/31 09:24:35;;;;;;;2.33;1.83;;;26.10;64.40;;;;;;5116131;27;20464;-66
2021/07/31 09:27:02;;;;;;;4.23;1.50;;;26.20;63.70;;;;;;5115770;27;20942;-65
2021/07/31 09:29:31;;;;;;;2.67;1.83;;;26.30;63.70;;;;;;5116355;27;20472;-65
2021/07/31 09:32:01;;;;;;;2.80;1.93;;;26.30;63.90;;;;;;5115575;27;20460;-65
2021/07/31 09:34:34;;;;;;;2.67;1.90;;;26.30;63.40;;;;;;5116097;27;20580;-65
2021/07/31 09:37:07;;;;;;;2.13;1.27;;;26.20;63.00;;;;;;5115662;27;20468;-65
2021/07/31 09:39:58;;;;;;;1.97;1.77;;;26.20;63.70;;;;;;5115913;27;20472;-65
2021/07/31 09:42:27;;;;;;;2.10;1.90;;;26.20;63.70;;;;;;5116018;27;20452;-64
2021/07/31 09:44:54;;;;;;;1.50;1.37;;;26.10;63.30;;;;;;5115816;27;20472;-64
2021/07/31 09:47:21;;;;;;;2.40;1.57;;;26.10;63.20;;;;;;5115280;27;20540;-66
2021/07/31 09:49:50;;;;;;;3.53;1.63;;;26.10;63.70;;;;;;5115881;27;20647;-64
2021/07/31 09:52:19;;;;;;;2.83;1.60;;;26.10;64.40;;;;;;5115790;27;20530;-65
2021/07/31 09:54:47;;;;;;;3.03;1.73;;;26.10;65.60;;;;;;5115552;27;20922;-64
2021/07/31 09:57:15;;;;;;;1.63;1.53;;;26.20;66.40;;;;;;5115496;27;20547;-65
2021/07/31 09:59:46;;;;;;;2.50;1.80;;;26.20;64.70;;;;;;5115017;27;20528;-66
2021/07/31 10:02:17;;;;;;;2.53;1.47;;;26.20;64.60;;;;;;5115664;27;20529;-64
2021/07/31 10:04:44;;;;;;;1.97;1.73;;;26.20;63.60;;;;;;5115118;27;20978;-64
2021/07/31 10:07:12;;;;;;;1.57;1.07;;;26.20;63.30;;;;;;5115431;27;20468;-65
2021/07/31 10:09:42;;;;;;;2.83;1.87;;;26.30;63.30;;;;;;5114967;27;21039;-65
2021/07/31 10:12:11;;;;;;;1.30;1.17;;;26.40;63.50;;;;;;5115524;27;20550;-65
2021/07/31 10:14:39;;;;;;;2.47;1.80;;;26.50;62.90;;;;;;5114714;27;20469;-65
2021/07/31 10:17:07;;;;;;;2.37;1.50;;;26.40;62.10;;;;;;5115230;27;20464;-65
2021/07/31 10:19:45;;;;;;;6.73;1.70;;;26.50;62.70;;;;;;5113832;27;20555;-64
2021/07/31 10:22:13;;;;;;;1.73;1.63;;;26.60;62.30;;;;;;5115289;27;20464;-64
2021/07/31 10:25:08;;;;;;;4.00;1.90;;;26.50;62.20;;;;;;5114731;27;20521;-66
2021/07/31 10:27:35;;;;;;;5.43;1.90;;;26.50;62.30;;;;;;5114474;27;20507;-65
2021/07/31 10:30:05;;;;;;;5.27;1.97;;;26.40;62.20;;;;;;5114962;27;20521;-65
2021/07/31 10:32:37;;;;;;;3.93;1.43;;;26.30;61.90;;;;;;5114535;27;20537;-65
2021/07/31 10:35:06;;;;;;;4.93;1.60;;;26.30;62.30;;;;;;5115087;27;20806;-64
2021/07/31 10:37:45;;;;;;;1.73;1.33;;;26.30;62.60;;;;;;5114307;27;20468;-63
2021/07/31 10:40:52;;;;;;;2.87;1.63;;;26.30;62.70;;;;;;5114846;27;21037;-65
2021/07/31 10:43:19;;;;;;;2.67;1.40;;;26.30;62.60;;;;;;5114635;27;20531;-66
2021/07/31 10:45:49;;;;;;;1.77;1.40;;;26.30;62.70;;;;;;5114683;27;20822;-67
2021/07/31 10:48:27;;;;;;;2.50;1.37;;;26.30;62.60;;;;;;5114287;27;20456;-66
2021/07/31 10:50:55;;;;;;;1.77;1.23;;;26.20;62.30;;;;;;5114698;27;20468;-65
2021/07/31 10:53:22;;;;;;;5.63;2.00;;;26.20;62.60;;;;;;5114014;27;20517;-64
2021/07/31 10:56:06;;;;;;;3.57;2.40;;;26.20;63.20;;;;;;5114578;27;20981;-66
2021/07/31 10:58:33;;;;;;;1.93;1.40;;;26.20;62.60;;;;;;5113810;27;20453;-66
2021/07/31 11:01:20;;;;;;;1.87;1.77;;;26.10;64.00;;;;;;5114514;27;20468;-66
2021/07/31 11:03:46;;;;;;;5.03;2.17;;;26.00;63.00;;;;;;5114842;27;20464;-65
2021/07/31 11:06:14;;;;;;;3.10;1.70;;;26.00;62.90;;;;;;5113860;27;20768;-65
2021/07/31 11:09:16;;;;;;;6.57;1.90;;;26.00;63.50;;;;;;5114237;27;20486;-65
2021/07/31 11:11:44;;;;;;;1.80;1.50;;;26.00;66.10;;;;;;5108815;27;20468;-65
2021/07/31 11:14:11;;;;;;;3.73;1.60;;;26.00;65.30;;;;;;5114112;27;20521;-66
2021/07/31 11:16:38;;;;;;;1.20;1.10;;;26.00;64.30;;;;;;5113485;27;20666;-65
2021/07/31 11:19:05;;;;;;;2.30;1.20;;;26.10;64.80;;;;;;5113825;27;20827;-65
2021/07/31 11:21:35;;;;;;;3.60;1.53;;;26.10;64.50;;;;;;5113863;27;20784;-66
2021/07/31 11:24:04;;;;;;;1.30;1.20;;;26.20;63.70;;;;;;5113889;27;20533;-65
2021/07/31 11:26:34;;;;;;;1.93;1.60;;;26.30;63.10;;;;;;5113666;27;20954;-64
2021/07/31 11:29:07;;;;;;;2.77;2.57;;;26.30;63.00;;;;;;5113774;27;20518;-66
2021/07/31 11:31:34;;;;;;;2.60;1.57;;;26.30;62.30;;;;;;5113432;27;20962;-65
2021/07/31 11:34:06;;;;;;;3.53;1.47;;;26.20;61.70;;;;;;5114017;27;20860;-65
2021/07/31 11:36:33;;;;;;;3.60;1.30;;;26.10;61.60;;;;;;5113321;27;20467;-65
2021/07/31 11:39:02;;;;;;;2.77;1.20;;;26.10;60.30;;;;;;5113606;27;20452;-65
2021/07/31 11:41:30;;;;;;;3.67;1.40;;;26.00;60.10;;;;;;5113615;27;20456;-64
2021/07/31 11:43:58;;;;;;;3.00;1.37;;;26.00;61.00;;;;;;5113245;27;20460;-64
2021/07/31 11:46:31;;;;;;;1.47;1.30;;;26.00;61.60;;;;;;5113397;27;20522;-64
2021/07/31 11:48:59;;;;;;;5.40;3.47;;;26.00;62.10;;;;;;5113286;27;20537;-65
2021/07/31 11:51:27;;;;;;;3.50;1.97;;;26.00;62.60;;;;;;5113316;27;20460;-65
2021/07/31 11:53:54;;;;;;;3.90;1.40;;;25.90;62.20;;;;;;5113168;27;23297;-66
2021/07/31 11:56:23;;;;;;;1.77;1.37;;;25.80;62.10;;;;;;5113447;27;20461;-66
2021/07/31 11:58:51;;;;;;;1.23;1.10;;;25.80;62.40;;;;;;5112686;27;20541;-64
2021/07/31 12:01:19;;;;;;;3.87;1.53;;;25.80;62.80;;;;;;5113544;27;21026;-64
2021/07/31 12:03:49;;;;;;;3.17;1.33;;;25.70;62.30;;;;;;5113041;27;20981;-65
2021/07/31 12:06:39;;;;;;;4.10;1.37;;;25.80;62.60;;;;;;5113296;27;20479;-65
2021/07/31 12:09:25;;;;;;;2.70;1.30;;;25.70;63.00;;;;;;5112649;27;20460;-64
2021/07/31 12:11:55;;;;;;;2.20;1.43;;;25.70;63.20;;;;;;5112782;27;20465;-66
2021/07/31 12:14:36;;;;;;;1.70;1.20;;;25.70;63.00;;;;;;5113246;27;20966;-65
2021/07/31 12:17:18;;;;;;;2.23;1.53;;;25.70;62.90;;;;;;5112856;27;20517;-65
2021/07/31 12:19:47;;;;;;;2.40;1.60;;;25.80;62.50;;;;;;5112630;27;20525;-64
2021/07/31 12:22:17;;;;;;;3.50;1.30;;;25.80;62.40;;;;;;5113122;27;20968;-65
2021/07/31 12:24:47;;;;;;;1.53;1.30;;;25.80;62.10;;;;;;5112812;27;20958;-65
2021/07/31 12:27:14;;;;;;;1.57;1.47;;;25.80;61.60;;;;;;5113085;27;20536;-65
2021/07/31 12:29:42;;;;;;;2.40;1.53;;;25.80;61.70;;;;;;5112622;27;20468;-64
2021/07/31 12:32:23;;;;;;;2.60;1.10;;;25.80;61.90;;;;;;5112724;27;21245;-64
2021/07/31 12:34:52;;;;;;;2.80;1.40;;;25.90;61.70;;;;;;5112491;27;20456;-65
2021/07/31 12:37:20;;;;;;;1.93;1.73;;;25.90;61.00;;;;;;5113279;27;20460;-65
2021/07/31 12:39:47;;;;;;;1.87;1.23;;;25.90;61.10;;;;;;5112279;27;20464;-66
2021/07/31 12:42:14;;;;;;;4.67;1.60;;;25.90;60.90;;;;;;5114524;27;20471;-66
2021/07/31 12:44:40;;;;;;;1.60;1.50;;;26.00;61.00;;;;;;5117001;27;20472;-65
2021/07/31 12:47:09;;;;;;;2.90;2.30;;;26.00;60.10;;;;;;5116341;27;20471;-64
2021/07/31 12:49:37;;;;;;;2.30;1.30;;;26.00;59.80;;;;;;5117089;27;20563;-64
2021/07/31 12:52:06;;;;;;;1.93;1.27;;;26.00;58.80;;;;;;5116579;27;20471;-64